createdAt,value
2022-09-17T00:02:14.940Z,1.80
2022-09-17T00:07:18.481Z,1.50
2022-09-17T00:12:21.046Z,1.90
2022-09-17T00:17:23.856Z,1.70
2022-09-17T00:22:26.713Z,2.30
2022-09-17T00:27:29.580Z,2.20
2022-09-17T00:32:32.389Z,1.80
2022-09-17T00:37:35.778Z,1.70
2022-09-17T00:42:37.807Z,1.60
2022-09-17T00:48:08.051Z,2.00
2022-09-17T00:53:20.542Z,2.00
2022-09-17T00:58:26.224Z,1.40
2022-09-17T01:03:29.705Z,1.70
2022-09-17T01:08:53.531Z,1.90
2022-09-17T01:14:23.925Z,3.80
2022-09-17T01:20:03.806Z,2.30
2022-09-17T01:25:33.292Z,1.90
2022-09-17T01:30:59.337Z,2.70
2022-09-17T01:36:04.713Z,2.60
2022-09-17T01:41:41.990Z,1.70
2022-09-17T01:46:53.802Z,3.00
2022-09-17T01:51:57.965Z,3.70
2022-09-17T01:57:12.740Z,2.60
2022-09-17T02:02:45.589Z,2.70
2022-09-17T02:08:09.262Z,2.90
2022-09-17T02:13:20.556Z,2.90
2022-09-17T02:18:32.528Z,1.90
2022-09-17T02:23:42.091Z,2.50
2022-09-17T02:28:52.256Z,2.50
2022-09-17T02:34:01.785Z,2.50
2022-09-17T02:39:04.339Z,1.80
2022-09-17T02:44:14.810Z,3.00
2022-09-17T02:49:21.127Z,2.40
2022-09-17T02:54:50.158Z,2.50
2022-09-17T02:59:59.777Z,1.90
2022-09-17T03:05:03.643Z,1.90
2022-09-17T03:10:07.799Z,2.20
2022-09-17T03:15:10.373Z,2.70
2022-09-17T03:20:16.186Z,2.20
2022-09-17T03:25:19.066Z,2.50
2022-09-17T03:30:21.292Z,2.90
2022-09-17T03:35:24.253Z,2.80
2022-09-17T03:40:26.528Z,2.10
2022-09-17T03:45:29.737Z,2.40
2022-09-17T03:50:31.703Z,1.80
2022-09-17T03:55:34.806Z,2.40
2022-09-17T04:00:37.749Z,1.90
2022-09-17T04:05:40.696Z,2.40
2022-09-17T04:10:44.407Z,2.40
2022-09-17T04:15:47.210Z,1.30
2022-09-17T04:20:48.875Z,2.80
2022-09-17T04:25:50.578Z,1.60
2022-09-17T04:30:52.223Z,2.10
2022-09-17T04:35:54.011Z,1.90
2022-09-17T04:40:57.106Z,1.80
2022-09-17T04:45:58.748Z,1.70
2022-09-17T04:51:00.621Z,2.30
2022-09-17T04:56:02.298Z,2.20
2022-09-17T05:01:04.305Z,0.90
2022-09-17T05:06:06.246Z,1.80
2022-09-17T05:11:07.963Z,2.00
2022-09-17T05:16:09.990Z,1.90
2022-09-17T05:21:11.840Z,1.50
2022-09-17T05:26:13.724Z,1.70
2022-09-17T05:31:15.623Z,2.10
2022-09-17T05:36:17.766Z,2.20
2022-09-17T05:41:19.378Z,2.10
2022-09-17T05:46:21.273Z,2.20
2022-09-17T05:51:23.279Z,1.80
2022-09-17T05:56:25.127Z,1.60
2022-09-17T06:01:26.929Z,2.20
2022-09-17T06:06:31.637Z,1.90
2022-09-17T06:11:33.521Z,1.80
2022-09-17T06:16:36.386Z,1.70
2022-09-17T06:21:38.284Z,1.50
2022-09-17T06:26:40.313Z,1.80
2022-09-17T06:31:44.235Z,1.90
2022-09-17T06:36:48.047Z,2.00
2022-09-17T06:41:49.969Z,2.50
2022-09-17T06:46:53.148Z,1.50
2022-09-17T06:51:56.002Z,1.50
2022-09-17T06:56:59.112Z,2.00
2022-09-17T07:02:04.741Z,2.90
2022-09-17T07:07:06.727Z,1.80
2022-09-17T07:12:08.866Z,1.70
2022-09-17T07:17:11.200Z,1.60
2022-09-17T07:22:13.680Z,3.00
2022-09-17T07:27:15.425Z,1.50
2022-09-17T07:32:17.196Z,1.80
2022-09-17T07:37:21.105Z,1.80
2022-09-17T07:42:22.944Z,2.20
2022-09-17T07:47:24.883Z,1.80
2022-09-17T07:52:27.223Z,1.70
2022-09-17T07:57:29.313Z,3.40
2022-09-17T08:02:31.833Z,2.10
2022-09-17T08:07:33.890Z,2.40
2022-09-17T08:12:35.877Z,2.20
2022-09-17T08:17:39.623Z,2.20
2022-09-17T08:22:44.009Z,1.30
2022-09-17T08:27:48.925Z,1.40
2022-09-17T08:32:51.298Z,2.10
2022-09-17T08:37:55.575Z,2.00
2022-09-17T08:43:02.775Z,2.30
2022-09-17T08:53:31.278Z,2.80
2022-09-17T08:58:41.276Z,2.50
2022-09-17T09:04:19.432Z,2.40
2022-09-17T09:14:33.906Z,3.20
2022-09-17T09:19:44.133Z,2.70
2022-09-17T09:25:11.161Z,2.90
2022-09-17T09:30:17.052Z,3.30
2022-09-17T09:35:31.327Z,2.30
2022-09-17T09:40:54.285Z,2.60
2022-09-17T09:46:15.514Z,2.70
2022-09-17T09:51:36.589Z,2.50
2022-09-17T09:57:03.141Z,1.70
2022-09-17T10:02:04.964Z,1.70
2022-09-17T10:07:10.528Z,2.60
2022-09-17T10:12:13.339Z,2.30
2022-09-17T10:17:22.931Z,2.30
2022-09-17T10:22:30.343Z,2.20
2022-09-17T10:27:33.708Z,2.10
2022-09-17T10:32:35.942Z,2.10
2022-09-17T10:37:44.800Z,1.40
2022-09-17T10:42:49.229Z,2.10
2022-09-17T10:47:52.792Z,2.00
2022-09-17T10:52:59.396Z,2.60
2022-09-17T10:58:07.581Z,2.70
2022-09-17T11:03:44.462Z,2.50
2022-09-17T11:08:58.530Z,2.70
2022-09-17T11:14:12.359Z,2.00
2022-09-17T11:19:32.795Z,2.80
2022-09-17T11:25:15.859Z,2.50
2022-09-17T11:30:40.958Z,3.00
2022-09-17T11:36:02.605Z,3.40
2022-09-17T11:41:08.117Z,3.00
2022-09-17T11:46:17.539Z,3.00
2022-09-17T11:51:38.871Z,3.20
2022-09-17T11:56:54.342Z,3.60
2022-09-17T12:02:01.920Z,3.60
2022-09-17T12:07:33.562Z,3.00
2022-09-17T12:13:03.095Z,3.40
2022-09-17T12:18:33.217Z,4.90
2022-09-17T12:23:50.266Z,4.10
2022-09-17T12:28:53.635Z,4.40
2022-09-17T12:34:20.963Z,4.00
2022-09-17T12:39:32.270Z,4.30
2022-09-17T12:44:50.689Z,4.10
2022-09-17T12:50:05.870Z,4.80
2022-09-17T12:55:20.145Z,2.90
2022-09-17T13:00:23.003Z,4.10
2022-09-17T13:05:46.133Z,3.90
2022-09-17T13:10:53.927Z,4.70
2022-09-17T13:16:17.076Z,4.10
2022-09-17T13:21:55.392Z,3.80
2022-09-17T13:27:01.712Z,3.90
2022-09-17T13:32:04.456Z,3.70
2022-09-17T13:37:20.328Z,4.40
2022-09-17T13:42:48.802Z,4.30
2022-09-17T13:47:53.424Z,3.60
2022-09-17T13:53:17.330Z,4.90
2022-09-17T13:58:20.759Z,3.30
2022-09-17T14:03:36.768Z,4.10
2022-09-17T14:08:45.226Z,3.90
2022-09-17T14:13:57.763Z,3.20
2022-09-17T14:19:05.492Z,3.00
2022-09-17T14:24:37.960Z,3.60
2022-09-17T14:30:02.898Z,3.80
2022-09-17T14:35:20.015Z,3.20
2022-09-17T14:40:25.551Z,2.20
2022-09-17T14:45:32.255Z,2.70
2022-09-17T14:55:42.858Z,2.60
2022-09-17T15:00:52.578Z,2.10
2022-09-17T15:05:55.464Z,2.70
2022-09-17T15:10:58.863Z,2.50
2022-09-17T15:16:22.499Z,2.70
2022-09-17T15:21:43.960Z,2.30
2022-09-17T15:26:49.503Z,2.40
2022-09-17T15:31:51.963Z,2.10
2022-09-17T15:37:05.029Z,3.30
2022-09-17T15:42:31.733Z,3.20
2022-09-17T15:47:54.937Z,3.40
2022-09-17T15:53:10.856Z,3.30
2022-09-17T15:58:27.286Z,2.50
2022-09-17T16:03:38.483Z,3.50
2022-09-17T16:08:42.991Z,5.20
2022-09-17T16:13:49.089Z,4.10
2022-09-17T16:18:52.708Z,3.30
2022-09-17T16:23:58.481Z,3.70
2022-09-17T16:29:10.865Z,4.00
2022-09-17T16:34:13.777Z,3.30
2022-09-17T16:39:16.871Z,3.70
2022-09-17T16:44:20.387Z,3.30
2022-09-17T16:49:23.969Z,4.20
2022-09-17T16:54:25.667Z,3.90
2022-09-17T16:59:27.548Z,4.10
2022-09-17T17:04:29.297Z,3.50
2022-09-17T17:09:31.160Z,3.60
2022-09-17T17:14:33.551Z,4.50
2022-09-17T17:19:36.353Z,4.10
2022-09-17T17:24:38.300Z,4.10
2022-09-17T17:29:40.742Z,4.10
2022-09-17T17:34:42.401Z,4.50
2022-09-17T17:39:44.047Z,6.20
2022-09-17T17:44:46.945Z,5.50
2022-09-17T17:49:48.915Z,5.40
2022-09-17T17:54:50.819Z,4.50
2022-09-17T17:59:52.465Z,3.90
2022-09-17T18:04:54.372Z,3.20
2022-09-17T18:09:56.548Z,3.90
2022-09-17T18:14:58.771Z,3.40
2022-09-17T18:20:01.059Z,3.70
2022-09-17T18:25:05.372Z,3.90
2022-09-17T18:30:10.078Z,4.20
2022-09-17T18:35:12.657Z,4.20
2022-09-17T18:40:16.090Z,3.60
2022-09-17T18:45:18.353Z,3.80
2022-09-17T18:50:21.036Z,3.50
2022-09-17T18:55:23.294Z,2.80
2022-09-17T19:00:25.684Z,3.20
2022-09-17T19:05:29.511Z,2.40
2022-09-17T19:10:32.486Z,2.10
2022-09-17T19:15:35.236Z,2.90
2022-09-17T19:20:38.397Z,2.30
2022-09-17T19:25:40.548Z,2.50
2022-09-17T19:30:43.087Z,2.00
2022-09-17T19:35:45.701Z,2.30
2022-09-17T19:40:57.028Z,3.00
2022-09-17T19:46:06.657Z,2.00
2022-09-17T19:51:09.061Z,2.50
2022-09-17T19:56:18.815Z,2.70
2022-09-17T20:01:21.155Z,2.40
2022-09-17T20:06:23.890Z,2.70
2022-09-17T20:11:26.453Z,2.10
2022-09-17T20:16:29.490Z,3.30
2022-09-17T20:21:32.678Z,3.10
2022-09-17T20:26:34.947Z,2.60
2022-09-17T20:31:37.611Z,3.10
2022-09-17T20:36:39.420Z,3.60
2022-09-17T20:41:42.879Z,3.40
2022-09-17T20:46:45.283Z,4.50
2022-09-17T20:51:47.360Z,4.60
2022-09-17T20:56:51.788Z,5.70
2022-09-17T21:01:55.811Z,4.30
2022-09-17T21:06:57.784Z,4.70
2022-09-17T21:11:59.710Z,4.30
2022-09-17T21:17:02.522Z,4.10
2022-09-17T21:22:05.529Z,4.20
2022-09-17T21:27:09.121Z,4.70
2022-09-17T21:32:11.262Z,5.30
2022-09-17T21:37:13.781Z,4.10
2022-09-17T21:42:16.922Z,4.60
2022-09-17T21:47:19.998Z,3.80
2022-09-17T21:52:23.748Z,3.90
2022-09-17T21:57:28.103Z,3.70
2022-09-17T22:02:31.386Z,3.30
2022-09-17T22:07:34.523Z,3.80
2022-09-17T22:12:37.441Z,3.60
2022-09-17T22:17:40.191Z,3.80
2022-09-17T22:22:47.406Z,2.80
2022-09-17T22:28:16.808Z,2.80
2022-09-17T22:33:12.857Z,3.10
2022-09-17T22:38:16.300Z,3.80
2022-09-17T22:43:18.494Z,4.40
2022-09-17T22:48:22.314Z,3.40
2022-09-17T22:53:24.947Z,2.50
2022-09-17T22:58:28.879Z,3.30
2022-09-17T23:03:32.249Z,3.60
2022-09-17T23:08:35.578Z,3.50
2022-09-17T23:13:38.024Z,4.20
2022-09-17T23:18:40.761Z,3.00
2022-09-17T23:23:45.152Z,3.10
2022-09-17T23:28:48.079Z,3.20
2022-09-17T23:33:51.916Z,3.20
2022-09-17T23:38:57.359Z,3.20
2022-09-17T23:44:02.293Z,3.70
2022-09-17T23:49:06.994Z,3.60
2022-09-17T23:54:10.129Z,3.10
2022-09-17T23:59:12.165Z,3.50
